YGM weather

Gimli Industrial Park Airport
Gimli, Manitoba, Canada

Public forecast

Using degrees Celsius for public forecast. Weather courtesy of forecast.io.

Closest aviation weather report (METAR) to Gimli Industrial Park Airport

Closest report is Winnipeg / James Armstrong Richardson International Airport, 43.8 nm (81.1 km) S. Retrieved 2019/12/10 08:00 UTC (8 minutes ago):

CYWG 100800Z 34016KT 15SM SKC M24/M28 A3015 RMK SLP241

Closest aviation forecast (TAF) to Gimli Industrial Park Airport

Closest forecast is Winnipeg / James Armstrong Richardson International Airport, 43.8 nm (81.1 km) S. Retrieved 2019/12/10 06:42 UTC (1 hour ago):

TAF CYWG 100538Z 1006/1106 35012G22KT P6SM FEW020 FM100900 32010KT P6SM SKC BECMG 1013/1015 24012KT FM102000 30013KT P6SM SCT060 FM110400 31010KT P6SM -SN BKN020 RMK NXT FCST BY 101200Z